Time;durP1;ratioP1;P1;durP2;ratioP2;P2;SDS_P1;SDS_P2;PMS_P1;PMS_P2;Temp;Humidity;BMP_temperature;BMP_pressure;BME280_temperature;BME280_humidity;BME280_pressure;Samples;Min_cycle;Max_cycle;Signal;HPM_P1;HPM_P2
2022/06/07 00:02:08;;;;;;;9.80;1.75;;;;;;;;;;7372748;19;20453;-76
2022/06/07 00:04:34;;;;;;;7.60;1.43;;;;;;;;;;7374094;19;19998;-77
2022/06/07 00:06:59;;;;;;;4.38;1.30;;;;;;;;;;7381588;19;20259;-77
2022/06/07 00:09:24;;;;;;;5.32;1.40;;;;;;;;;;7372860;19;20305;-77
2022/06/07 00:11:49;;;;;;;7.45;1.50;;;;;;;;;;7359194;19;20025;-78
2022/06/07 00:14:15;;;;;;;4.65;1.40;;;;;;;;;;7374079;19;20037;-77
2022/06/07 00:16:40;;;;;;;3.90;1.52;;;;;;;;;;7336819;19;19995;-78
2022/06/07 00:19:06;;;;;;;6.68;1.98;;;;;;;;;;7358354;19;20036;-74
2022/06/07 00:21:31;;;;;;;9.25;1.77;;;;;;;;;;7375228;19;20026;-77
2022/06/07 00:23:58;;;;;;;4.97;1.50;;;;;;;;;;7376972;19;20030;-77
2022/06/07 00:26:24;;;;;;;4.50;1.48;;;;;;;;;;7380739;19;20264;-76
2022/06/07 00:28:49;;;;;;;3.80;1.42;;;;;;;;;;7377633;19;20082;-77
2022/06/07 00:31:15;;;;;;;6.23;1.70;;;;;;;;;;7375278;19;20002;-78
2022/06/07 00:33:40;;;;;;;3.40;1.40;;;;;;;;;;7373016;19;20540;-77
2022/06/07 00:36:06;;;;;;;11.60;1.42;;;;;;;;;;7379050;19;20018;-77
2022/06/07 00:38:31;;;;;;;6.63;1.60;;;;;;;;;;7377443;19;20011;-76
2022/06/07 00:40:56;;;;;;;4.33;1.60;;;;;;;;;;7376625;19;20608;-77
2022/06/07 00:43:22;;;;;;;3.72;1.40;;;;;;;;;;7376504;19;20256;-75
2022/06/07 00:45:48;;;;;;;4.40;1.30;;;;;;;;;;7380190;19;19990;-76
2022/06/07 00:48:13;;;;;;;5.37;1.77;;;;;;;;;;7369463;19;20011;-75
2022/06/07 00:50:43;;;;;;;4.97;1.30;;;;;;;;;;7374251;19;20260;-76
2022/06/07 00:53:16;;;;;;;6.53;1.70;;;;;;;;;;7379896;19;20327;-75
2022/06/07 00:55:41;;;;;;;5.50;1.50;;;;;;;;;;7375672;19;20002;-77
2022/06/07 00:58:06;;;;;;;6.40;1.65;;;;;;;;;;7375456;19;20339;-76
2022/06/07 01:00:32;;;;;;;5.83;1.77;;;;;;;;;;7379770;19;20027;-75
2022/06/07 01:02:57;;;;;;;4.03;1.35;;;;;;;;;;7372003;19;21233;-76
2022/06/07 01:05:22;;;;;;;3.17;1.37;;;;;;;;;;7332427;19;20007;-76
2022/06/07 01:10:43;;;;;;;5.05;1.65;;;;;;;;;;7370450;19;20004;-74
2022/06/07 01:13:08;;;;;;;3.58;1.40;;;;;;;;;;7376911;19;20014;-76
2022/06/07 01:15:33;;;;;;;6.90;1.50;;;;;;;;;;7370793;19;20082;-75
2022/06/07 01:17:59;;;;;;;6.33;1.83;;;;;;;;;;7362775;19;20247;-75
2022/06/07 01:20:25;;;;;;;3.97;1.73;;;;;;;;;;7358031;19;20786;-76
2022/06/07 01:22:51;;;;;;;5.88;1.90;;;;;;;;;;7370213;19;20038;-76
2022/06/07 01:25:16;;;;;;;5.00;1.75;;;;;;;;;;7365194;19;20031;-77
2022/06/07 01:27:41;;;;;;;7.45;2.13;;;;;;;;;;7377959;19;20030;-76
2022/06/07 01:30:06;;;;;;;5.90;1.80;;;;;;;;;;7372661;19;20027;-76
2022/06/07 01:32:32;;;;;;;6.35;2.13;;;;;;;;;;7371176;19;20028;-75
2022/06/07 01:34:57;;;;;;;4.90;1.63;;;;;;;;;;7378000;19;20412;-75
2022/06/07 01:37:22;;;;;;;4.00;1.70;;;;;;;;;;7378133;19;20011;-76
2022/06/07 01:42:31;;;;;;;5.50;1.80;;;;;;;;;;7374033;19;20254;-76
2022/06/07 01:44:57;;;;;;;5.30;2.00;;;;;;;;;;7371050;19;20445;-76
2022/06/07 01:47:23;;;;;;;6.40;1.90;;;;;;;;;;7374956;19;19998;-75
2022/06/07 01:49:49;;;;;;;6.88;1.75;;;;;;;;;;7375620;19;20011;-76
2022/06/07 01:52:15;;;;;;;5.30;1.95;;;;;;;;;;7377956;19;19998;-76
2022/06/07 01:54:41;;;;;;;4.05;1.70;;;;;;;;;;7377448;19;20752;-75
2022/06/07 01:57:07;;;;;;;4.30;1.85;;;;;;;;;;7371830;19;19998;-76
2022/06/07 01:59:32;;;;;;;6.65;2.13;;;;;;;;;;7373489;19;20037;-75
2022/06/07 02:01:58;;;;;;;5.00;1.70;;;;;;;;;;7371170;19;20470;-75
2022/06/07 02:04:23;;;;;;;11.50;1.88;;;;;;;;;;7378606;19;20350;-76
2022/06/07 02:06:49;;;;;;;5.25;1.73;;;;;;;;;;7378007;19;20041;-76
2022/06/07 02:09:15;;;;;;;4.38;1.83;;;;;;;;;;7371385;19;20006;-76
2022/06/07 02:11:40;;;;;;;4.10;1.60;;;;;;;;;;7374198;19;20018;-76
2022/06/07 02:14:06;;;;;;;6.33;1.63;;;;;;;;;;7377053;19;20022;-76
2022/06/07 02:16:31;;;;;;;4.35;1.75;;;;;;;;;;7356009;19;21134;-76
2022/06/07 02:18:57;;;;;;;5.97;2.13;;;;;;;;;;7362611;19;20027;-75
2022/06/07 02:21:22;;;;;;;5.53;1.88;;;;;;;;;;7373679;19;20015;-75
2022/06/07 02:23:49;;;;;;;5.85;1.92;;;;;;;;;;7375925;19;20338;-75
2022/06/07 02:26:21;;;;;;;7.85;1.92;;;;;;;;;;7372795;19;20316;-75
2022/06/07 02:28:49;;;;;;;7.55;2.05;;;;;;;;;;7347999;19;20654;-76
2022/06/07 02:31:15;;;;;;;5.15;2.05;;;;;;;;;;7367478;19;20006;-77
2022/06/07 02:33:40;;;;;;;5.20;2.30;;;;;;;;;;7372356;19;20486;-76
2022/06/07 02:36:06;;;;;;;6.68;2.40;;;;;;;;;;7378452;19;20080;-76
2022/06/07 02:38:32;;;;;;;6.53;1.92;;;;;;;;;;7382598;19;20588;-76
2022/06/07 02:40:58;;;;;;;6.75;1.90;;;;;;;;;;7380230;19;20007;-77
2022/06/07 02:43:23;;;;;;;4.72;1.80;;;;;;;;;;7379671;19;20038;-75
2022/06/07 02:45:48;;;;;;;4.45;1.83;;;;;;;;;;7381326;19;20660;-75
2022/06/07 02:48:13;;;;;;;4.60;1.95;;;;;;;;;;7381034;19;20033;-76
2022/06/07 02:50:39;;;;;;;8.35;2.17;;;;;;;;;;7381344;19;20380;-75
2022/06/07 02:53:04;;;;;;;4.38;2.20;;;;;;;;;;7383887;19;20377;-75
2022/06/07 02:55:30;;;;;;;4.85;1.50;;;;;;;;;;7381959;19;20013;-76
2022/06/07 02:57:55;;;;;;;5.90;2.20;;;;;;;;;;7374789;19;20107;-75
2022/06/07 03:00:20;;;;;;;4.00;2.00;;;;;;;;;;7381801;19;20013;-75
2022/06/07 03:02:47;;;;;;;5.82;2.08;;;;;;;;;;7375232;19;20802;-75
2022/06/07 03:05:12;;;;;;;5.05;1.80;;;;;;;;;;7375576;19;20442;-75
2022/06/07 03:07:38;;;;;;;5.75;2.00;;;;;;;;;;7385161;19;20054;-76
2022/06/07 03:10:04;;;;;;;5.60;1.98;;;;;;;;;;7382576;19;20392;-76
2022/06/07 03:12:29;;;;;;;4.80;1.88;;;;;;;;;;7380596;19;20018;-76
2022/06/07 03:14:55;;;;;;;5.53;2.08;;;;;;;;;;7377280;19;20025;-76
2022/06/07 03:17:20;;;;;;;4.53;1.80;;;;;;;;;;7378002;19;20011;-76
2022/06/07 03:19:45;;;;;;;4.87;1.80;;;;;;;;;;7380451;19;20280;-76
2022/06/07 03:22:12;;;;;;;4.63;1.90;;;;;;;;;;7382536;19;20259;-76
2022/06/07 03:24:37;;;;;;;3.80;1.65;;;;;;;;;;7378929;19;20318;-75
2022/06/07 03:27:03;;;;;;;4.00;1.75;;;;;;;;;;7375968;19;20110;-76
2022/06/07 03:29:28;;;;;;;5.63;2.10;;;;;;;;;;7381003;19;20077;-75
2022/06/07 03:31:53;;;;;;;5.20;1.90;;;;;;;;;;7377923;19;20019;-76
2022/06/07 03:34:19;;;;;;;5.10;2.10;;;;;;;;;;7381429;19;20488;-76
2022/06/07 03:36:44;;;;;;;7.72;1.60;;;;;;;;;;7383041;19;19994;-76
2022/06/07 03:39:10;;;;;;;4.25;1.83;;;;;;;;;;7383433;19;20385;-75
2022/06/07 03:41:36;;;;;;;5.88;2.25;;;;;;;;;;7376245;19;20030;-75
2022/06/07 03:44:01;;;;;;;5.50;2.55;;;;;;;;;;7378845;19;20010;-76
2022/06/07 03:46:27;;;;;;;6.95;2.35;;;;;;;;;;7377859;19;20399;-75
2022/06/07 03:48:53;;;;;;;6.72;1.85;;;;;;;;;;7376209;19;20025;-75
2022/06/07 03:51:19;;;;;;;4.53;2.40;;;;;;;;;;7379219;19;20002;-75
2022/06/07 03:53:45;;;;;;;4.75;2.50;;;;;;;;;;7377597;19;20003;-76
2022/06/07 03:56:11;;;;;;;5.28;2.00;;;;;;;;;;7380715;19;20007;-76
2022/06/07 03:58:39;;;;;;;5.40;2.25;;;;;;;;;;7375257;19;20022;-75
2022/06/07 04:01:05;;;;;;;5.90;1.98;;;;;;;;;;7373772;19;20029;-76
2022/06/07 04:03:30;;;;;;;5.35;2.47;;;;;;;;;;7374342;19;20013;-76
2022/06/07 04:05:56;;;;;;;7.03;2.30;;;;;;;;;;7381255;19;20038;-75
2022/06/07 04:08:22;;;;;;;4.10;1.60;;;;;;;;;;7376033;19;20243;-76
2022/06/07 04:11:00;;;;;;;4.03;1.90;;;;;;;;;;7376297;19;20034;-75
2022/06/07 04:13:27;;;;;;;8.43;2.40;;;;;;;;;;7378677;19;20041;-76
2022/06/07 04:15:52;;;;;;;7.25;2.60;;;;;;;;;;7383267;19;20006;-75
2022/06/07 04:18:18;;;;;;;5.28;2.63;;;;;;;;;;7371730;19;20038;-76
2022/06/07 04:20:43;;;;;;;6.10;2.30;;;;;;;;;;7372781;19;20006;-76
2022/06/07 04:23:12;;;;;;;5.82;2.33;;;;;;;;;;7378717;19;20026;-75
2022/06/07 04:25:39;;;;;;;5.07;2.00;;;;;;;;;;7378663;19;20390;-76
2022/06/07 04:28:04;;;;;;;4.95;2.03;;;;;;;;;;7373755;19;20577;-75
2022/06/07 04:30:30;;;;;;;4.45;1.92;;;;;;;;;;7375016;19;20480;-76
2022/06/07 04:32:55;;;;;;;5.78;1.80;;;;;;;;;;7377118;19;20011;-76
2022/06/07 04:35:21;;;;;;;4.18;1.40;;;;;;;;;;7376286;19;20501;-76
2022/06/07 04:37:46;;;;;;;7.20;2.00;;;;;;;;;;7376678;19;20020;-77
2022/06/07 04:40:11;;;;;;;4.28;1.95;;;;;;;;;;7375769;19;20833;-76
2022/06/07 04:42:37;;;;;;;4.47;1.67;;;;;;;;;;7377539;19;20425;-76
2022/06/07 04:45:02;;;;;;;5.70;1.83;;;;;;;;;;7378349;19;19998;-76
2022/06/07 04:47:28;;;;;;;4.13;1.80;;;;;;;;;;7374030;19;20247;-75
2022/06/07 04:49:53;;;;;;;4.32;1.55;;;;;;;;;;7379027;19;20002;-76
2022/06/07 04:52:18;;;;;;;5.23;1.93;;;;;;;;;;7380466;19;20014;-76
2022/06/07 04:54:43;;;;;;;4.30;1.75;;;;;;;;;;7374616;19;20720;-75
2022/06/07 04:57:08;;;;;;;6.10;1.73;;;;;;;;;;7375851;19;20414;-76
2022/06/07 04:59:34;;;;;;;4.67;1.90;;;;;;;;;;7374025;19;20731;-76
2022/06/07 05:01:59;;;;;;;5.38;1.70;;;;;;;;;;7371402;19;20283;-76
2022/06/07 05:04:25;;;;;;;4.27;1.77;;;;;;;;;;7378907;19;20007;-76
2022/06/07 05:06:51;;;;;;;4.28;1.60;;;;;;;;;;7378046;19;20780;-76
2022/06/07 05:09:22;;;;;;;5.82;1.75;;;;;;;;;;7379596;19;20026;-76
2022/06/07 05:11:48;;;;;;;3.70;1.77;;;;;;;;;;7377300;19;20015;-76
2022/06/07 05:14:13;;;;;;;6.13;1.65;;;;;;;;;;7377429;19;20011;-75
2022/06/07 05:16:39;;;;;;;5.90;2.30;;;;;;;;;;7371121;19;20553;-76
2022/06/07 05:19:04;;;;;;;4.47;1.55;;;;;;;;;;7375872;19;20495;-76
2022/06/07 05:21:30;;;;;;;4.40;1.67;;;;;;;;;;7380794;19;20023;-77
2022/06/07 05:23:55;;;;;;;4.93;1.60;;;;;;;;;;7369092;19;20081;-76
2022/06/07 05:26:33;;;;;;;6.32;1.90;;;;;;;;;;7369965;19;20359;-76
2022/06/07 05:28:58;;;;;;;6.22;1.90;;;;;;;;;;7376196;19;20038;-75
2022/06/07 05:31:24;;;;;;;5.47;1.60;;;;;;;;;;7370072;19;20477;-76
2022/06/07 05:33:49;;;;;;;5.47;1.92;;;;;;;;;;7372121;19;20009;-76
2022/06/07 05:36:15;;;;;;;8.63;2.20;;;;;;;;;;7375947;19;20377;-76
2022/06/07 05:38:40;;;;;;;6.18;2.10;;;;;;;;;;7376182;19;20028;-76
2022/06/07 05:41:06;;;;;;;5.60;1.92;;;;;;;;;;7375695;19;20070;-76
2022/06/07 05:43:31;;;;;;;6.60;2.23;;;;;;;;;;7373544;19;20022;-76
2022/06/07 05:45:56;;;;;;;5.13;2.07;;;;;;;;;;7378200;19;20003;-76
2022/06/07 05:48:22;;;;;;;8.27;2.25;;;;;;;;;;7368545;19;20077;-76
2022/06/07 05:50:53;;;;;;;5.95;2.00;;;;;;;;;;7366114;19;20011;-76
2022/06/07 05:53:19;;;;;;;6.55;2.67;;;;;;;;;;7380673;19;20530;-75
2022/06/07 05:55:44;;;;;;;5.18;2.08;;;;;;;;;;7367232;19;20010;-75
2022/06/07 05:58:10;;;;;;;5.90;2.20;;;;;;;;;;7374391;19;20015;-76
2022/06/07 06:00:36;;;;;;;5.75;2.17;;;;;;;;;;7350145;19;20007;-74
2022/06/07 06:03:01;;;;;;;5.05;2.10;;;;;;;;;;7372814;19;20013;-77
2022/06/07 06:05:26;;;;;;;6.67;2.03;;;;;;;;;;7376900;19;20027;-77
2022/06/07 06:10:35;;;;;;;5.55;2.22;;;;;;;;;;7369713;19;20523;-76
2022/06/07 06:13:01;;;;;;;5.80;2.10;;;;;;;;;;7380309;19;20014;-76
2022/06/07 06:15:26;;;;;;;5.68;1.90;;;;;;;;;;7377777;19;20285;-77
2022/06/07 06:17:51;;;;;;;6.75;2.53;;;;;;;;;;7373309;19;20045;-77
2022/06/07 06:20:16;;;;;;;8.93;2.80;;;;;;;;;;7375810;19;20119;-76
2022/06/07 06:22:42;;;;;;;10.80;2.43;;;;;;;;;;7379282;19;20007;-75
2022/06/07 06:25:07;;;;;;;4.70;2.40;;;;;;;;;;7374229;19;20454;-75
2022/06/07 06:27:34;;;;;;;5.20;2.30;;;;;;;;;;7378317;19;20247;-75
2022/06/07 06:29:59;;;;;;;4.90;2.10;;;;;;;;;;7377051;19;20108;-75
2022/06/07 06:32:24;;;;;;;8.23;2.20;;;;;;;;;;7374569;19;20007;-76
2022/06/07 06:34:50;;;;;;;6.20;2.27;;;;;;;;;;7377615;19;20275;-76
2022/06/07 06:37:15;;;;;;;6.18;2.20;;;;;;;;;;7379530;19;20600;-76
2022/06/07 06:39:40;;;;;;;5.10;2.30;;;;;;;;;;7374393;19;20003;-76
2022/06/07 06:42:06;;;;;;;5.87;1.80;;;;;;;;;;7377281;19;20010;-75
2022/06/07 06:44:31;;;;;;;6.77;2.00;;;;;;;;;;7378285;19;19999;-75
2022/06/07 06:46:57;;;;;;;3.97;1.88;;;;;;;;;;7372613;19;20246;-75
2022/06/07 06:49:24;;;;;;;4.72;2.10;;;;;;;;;;7377388;19;20041;-75
2022/06/07 06:51:49;;;;;;;6.90;2.15;;;;;;;;;;7376225;19;20007;-75
2022/06/07 06:54:15;;;;;;;5.47;1.80;;;;;;;;;;7378750;19;20038;-75
2022/06/07 06:56:41;;;;;;;4.85;1.90;;;;;;;;;;7378142;19;20007;-75
2022/06/07 06:59:06;;;;;;;7.28;2.00;;;;;;;;;;7376127;19;20447;-75
2022/06/07 07:01:32;;;;;;;7.13;2.00;;;;;;;;;;7372177;19;20517;-76
2022/06/07 07:04:02;;;;;;;5.53;1.83;;;;;;;;;;7376352;19;20007;-75
2022/06/07 07:06:27;;;;;;;7.28;2.33;;;;;;;;;;7375981;19;20062;-75
2022/06/07 07:08:54;;;;;;;5.20;1.58;;;;;;;;;;7371130;19;20040;-76
2022/06/07 07:11:24;;;;;;;7.38;1.73;;;;;;;;;;7378373;19;20364;-77
2022/06/07 07:13:50;;;;;;;5.35;1.55;;;;;;;;;;7378194;19;20011;-74
2022/06/07 07:16:17;;;;;;;5.53;1.80;;;;;;;;;;7373247;19;20460;-74
2022/06/07 07:18:43;;;;;;;6.63;2.00;;;;;;;;;;7375697;19;20018;-74
2022/06/07 07:21:11;;;;;;;7.78;1.60;;;;;;;;;;7378198;19;20002;-74
2022/06/07 07:23:37;;;;;;;5.75;1.58;;;;;;;;;;7379550;19;20496;-74
2022/06/07 07:26:03;;;;;;;4.78;1.23;;;;;;;;;;7382871;19;20015;-74
2022/06/07 07:28:29;;;;;;;4.53;1.35;;;;;;;;;;7382546;19;20022;-74
2022/06/07 07:30:59;;;;;;;5.60;1.73;;;;;;;;;;7384736;19;20108;-74
2022/06/07 07:33:24;;;;;;;20.20;2.70;;;;;;;;;;7381309;19;20370;-74
2022/06/07 07:35:49;;;;;;;6.33;1.60;;;;;;;;;;7381011;19;19995;-74
2022/06/07 07:38:14;;;;;;;6.28;1.40;;;;;;;;;;7381310;19;20439;-74
2022/06/07 07:40:40;;;;;;;4.43;1.57;;;;;;;;;;7383517;19;20003;-75
2022/06/07 07:43:06;;;;;;;4.93;1.30;;;;;;;;;;7378996;19;19991;-75
2022/06/07 07:45:34;;;;;;;4.30;1.50;;;;;;;;;;7381364;19;20031;-74
2022/06/07 07:47:59;;;;;;;4.22;1.33;;;;;;;;;;7382632;19;20035;-74
2022/06/07 07:50:24;;;;;;;5.03;1.70;;;;;;;;;;7381932;19;19998;-75
2022/06/07 07:52:49;;;;;;;5.13;1.52;;;;;;;;;;7382008;19;20469;-75
2022/06/07 07:55:15;;;;;;;9.43;1.83;;;;;;;;;;7383203;19;20002;-75
2022/06/07 07:57:40;;;;;;;4.85;1.48;;;;;;;;;;7376051;19;20574;-75
2022/06/07 08:00:06;;;;;;;3.57;1.30;;;;;;;;;;7380778;19;20446;-75
2022/06/07 08:02:31;;;;;;;6.35;1.60;;;;;;;;;;7371722;19;20281;-75
2022/06/07 08:04:56;;;;;;;6.57;1.60;;;;;;;;;;7384027;19;20022;-75
2022/06/07 08:07:21;;;;;;;5.40;1.40;;;;;;;;;;7384285;19;20018;-75
2022/06/07 08:09:46;;;;;;;6.88;1.67;;;;;;;;;;7382804;19;20609;-77
2022/06/07 08:12:11;;;;;;;4.23;1.47;;;;;;;;;;7379554;19;20022;-77
2022/06/07 08:14:37;;;;;;;6.00;1.83;;;;;;;;;;7380349;19;20247;-77
2022/06/07 08:17:03;;;;;;;5.25;1.77;;;;;;;;;;7382364;19;20592;-77
2022/06/07 08:19:28;;;;;;;7.13;1.92;;;;;;;;;;7381514;19;20049;-77
2022/06/07 08:21:54;;;;;;;8.07;1.70;;;;;;;;;;7384201;19;20379;-76
2022/06/07 08:24:19;;;;;;;5.40;1.80;;;;;;;;;;7379404;19;20867;-78
2022/06/07 08:26:46;;;;;;;4.30;1.63;;;;;;;;;;7378868;19;20018;-77
2022/06/07 08:29:12;;;;;;;6.65;1.60;;;;;;;;;;7379731;19;20018;-77
2022/06/07 08:31:37;;;;;;;6.60;1.60;;;;;;;;;;7377143;19;20030;-77
2022/06/07 08:39:31;;;;;;;5.63;1.60;;;;;;;;;;7376322;19;19928;-76
2022/06/07 08:42:00;;;;;;;6.75;1.38;;;;;;;;;;7381963;19;20011;-75
2022/06/07 08:44:31;;;;;;;4.55;1.38;;;;;;;;;;7381580;19;20035;-75
2022/06/07 08:46:59;;;;;;;5.80;1.75;;;;;;;;;;7380144;19;20070;-75
2022/06/07 08:49:24;;;;;;;7.32;1.73;;;;;;;;;;7382591;19;20005;-75
2022/06/07 08:51:49;;;;;;;7.78;1.75;;;;;;;;;;7381322;19;20041;-75
2022/06/07 08:54:18;;;;;;;5.93;1.95;;;;;;;;;;7382738;19;20007;-75
2022/06/07 08:56:44;;;;;;;8.30;1.50;;;;;;;;;;7375375;19;20078;-74
2022/06/07 08:59:11;;;;;;;6.03;1.40;;;;;;;;;;7376270;19;20723;-74
2022/06/07 09:01:43;;;;;;;5.20;1.38;;;;;;;;;;7373714;19;20348;-76
2022/06/07 09:04:14;;;;;;;6.40;1.63;;;;;;;;;;7381818;19;20089;-75
2022/06/07 09:06:41;;;;;;;4.95;1.60;;;;;;;;;;7378810;19;20022;-75
2022/06/07 09:09:07;;;;;;;5.13;1.65;;;;;;;;;;7379586;19;19994;-76
2022/06/07 09:14:29;;;;;;;5.88;1.60;;;;;;;;;;7380523;19;20001;-74
2022/06/07 09:16:55;;;;;;;8.18;1.73;;;;;;;;;;7372752;19;20014;-75
2022/06/07 09:19:22;;;;;;;9.10;1.70;;;;;;;;;;7355998;19;20018;-75
2022/06/07 09:21:49;;;;;;;3.95;1.35;;;;;;;;;;7370212;19;20086;-76
2022/06/07 09:24:26;;;;;;;8.20;1.60;;;;;;;;;;7377175;19;20022;-75
2022/06/07 09:27:02;;;;;;;6.22;1.60;;;;;;;;;;7364465;19;20486;-75
2022/06/07 09:29:33;;;;;;;6.35;1.70;;;;;;;;;;7367569;19;20076;-76
2022/06/07 09:31:58;;;;;;;4.82;1.55;;;;;;;;;;7373938;19;20003;-75
2022/06/07 09:34:25;;;;;;;4.47;1.60;;;;;;;;;;7368885;19;20105;-75
2022/06/07 09:36:55;;;;;;;5.50;1.67;;;;;;;;;;7375276;19;20109;-76
2022/06/07 09:39:26;;;;;;;6.18;1.63;;;;;;;;;;7369188;19;20018;-75
2022/06/07 09:41:58;;;;;;;5.45;1.52;;;;;;;;;;7377891;19;20316;-76
2022/06/07 09:44:51;;;;;;;8.43;1.77;;;;;;;;;;7361833;19;20018;-76
2022/06/07 09:47:21;;;;;;;3.65;1.30;;;;;;;;;;7362523;19;20011;-75
2022/06/07 09:49:48;;;;;;;7.53;1.40;;;;;;;;;;7375730;19;20002;-75
2022/06/07 09:52:13;;;;;;;4.72;1.60;;;;;;;;;;7379757;19;20006;-75
2022/06/07 09:54:41;;;;;;;5.07;1.70;;;;;;;;;;7371992;19;20390;-76
2022/06/07 09:57:15;;;;;;;6.95;2.25;;;;;;;;;;7359304;19;20006;-77
2022/06/07 09:59:41;;;;;;;6.05;1.77;;;;;;;;;;7360556;19;20099;-75
2022/06/07 10:02:27;;;;;;;10.82;2.30;;;;;;;;;;7368826;19;20016;-76
2022/06/07 10:05:14;;;;;;;6.75;2.30;;;;;;;;;;7375016;19;20301;-76
2022/06/07 10:08:00;;;;;;;7.50;2.30;;;;;;;;;;7373421;19;20351;-76
2022/06/07 10:10:33;;;;;;;5.25;2.40;;;;;;;;;;7367609;19;20339;-76
2022/06/07 10:13:04;;;;;;;8.10;2.63;;;;;;;;;;7370252;19;20003;-75
2022/06/07 10:15:32;;;;;;;7.85;2.67;;;;;;;;;;7371333;19;20010;-76
2022/06/07 10:17:58;;;;;;;7.15;2.22;;;;;;;;;;7357350;19;20341;-75
2022/06/07 10:20:44;;;;;;;5.18;2.10;;;;;;;;;;7369095;19;20015;-76
2022/06/07 10:23:24;;;;;;;7.45;2.15;;;;;;;;;;7372699;19;20463;-75
2022/06/07 10:26:08;;;;;;;4.68;1.75;;;;;;;;;;7371389;19;20023;-75
2022/06/07 10:28:33;;;;;;;;;;;;;;;;;;7366891;19;20016;-77
2022/06/07 10:31:02;;;;;;;5.00;1.80;;;;;;;;;;7377681;19;19922;-77
2022/06/07 10:33:27;;;;;;;7.50;2.75;;;;;;;;;;7374071;19;20014;-75
2022/06/07 10:36:11;;;;;;;10.45;2.40;;;;;;;;;;7371148;19;19995;-76
2022/06/07 10:38:36;;;;;;;6.22;2.35;;;;;;;;;;7370487;19;20048;-76
2022/06/07 10:41:01;;;;;;;5.37;1.50;;;;;;;;;;7375898;19;20342;-78
2022/06/07 10:43:47;;;;;;;6.10;1.83;;;;;;;;;;7371614;19;20003;-77
2022/06/07 10:46:14;;;;;;;7.15;2.03;;;;;;;;;;7373560;19;20015;-77
2022/06/07 10:48:47;;;;;;;5.63;2.00;;;;;;;;;;7370588;19;20010;-76
2022/06/07 10:54:11;;;;;;;5.00;2.00;;;;;;;;;;7350996;19;20016;-76
2022/06/07 10:56:44;;;;;;;6.20;1.90;;;;;;;;;;7359972;19;20373;-75
2022/06/07 10:59:18;;;;;;;4.00;1.87;;;;;;;;;;7360439;19;19999;-76
2022/06/07 11:01:52;;;;;;;5.50;1.58;;;;;;;;;;7364278;19;20378;-75
2022/06/07 11:09:47;;;;;;;;;;;;;;;;;;7366627;19;20005;-75
2022/06/07 11:12:12;;;;;;;6.43;2.13;;;;;;;;;;7379002;19;19919;-78
2022/06/07 11:14:50;;;;;;;9.70;2.07;;;;;;;;;;7374538;19;20788;-77
2022/06/07 11:17:20;;;;;;;7.28;2.05;;;;;;;;;;7378428;19;20290;-75
2022/06/07 11:19:46;;;;;;;5.53;1.88;;;;;;;;;;7383889;19;20459;-75
2022/06/07 11:22:17;;;;;;;9.23;2.20;;;;;;;;;;7381719;19;20006;-77
2022/06/07 11:24:57;;;;;;;4.32;1.92;;;;;;;;;;7366368;19;20014;-74
2022/06/07 11:27:23;;;;;;;4.43;1.42;;;;;;;;;;7378646;19;20102;-75
2022/06/07 11:30:08;;;;;;;4.43;1.52;;;;;;;;;;7370818;19;20034;-76
2022/06/07 11:32:39;;;;;;;7.13;1.80;;;;;;;;;;7370345;19;20002;-76
2022/06/07 11:35:22;;;;;;;4.65;1.30;;;;;;;;;;7370931;19;20097;-76
2022/06/07 11:37:51;;;;;;;4.80;1.10;;;;;;;;;;7379957;19;20608;-76
2022/06/07 11:40:34;;;;;;;4.30;1.20;;;;;;;;;;7381722;19;20335;-76
2022/06/07 11:43:00;;;;;;;6.68;1.52;;;;;;;;;;7386271;19;20014;-76
2022/06/07 11:45:25;;;;;;;5.57;1.53;;;;;;;;;;7372776;19;20018;-77
2022/06/07 11:48:03;;;;;;;3.03;1.13;;;;;;;;;;7377450;19;20505;-76
2022/06/07 11:50:30;;;;;;;4.82;1.33;;;;;;;;;;7385365;19;20029;-75
2022/06/07 11:52:57;;;;;;;3.08;1.10;;;;;;;;;;7380122;19;19990;-76
2022/06/07 11:55:24;;;;;;;5.63;1.58;;;;;;;;;;7379830;19;20017;-76
2022/06/07 11:57:52;;;;;;;3.42;1.10;;;;;;;;;;7378124;19;19998;-75
2022/06/07 12:00:17;;;;;;;3.05;1.25;;;;;;;;;;7382543;19;20052;-76
2022/06/07 12:03:00;;;;;;;3.23;1.10;;;;;;;;;;7374542;19;20313;-75
2022/06/07 12:05:41;;;;;;;5.05;1.50;;;;;;;;;;7381395;19;20239;-75
2022/06/07 12:08:15;;;;;;;3.00;0.90;;;;;;;;;;7380844;19;20003;-75
2022/06/07 12:10:52;;;;;;;2.85;1.00;;;;;;;;;;7381355;19;20490;-75
2022/06/07 12:13:49;;;;;;;4.25;1.20;;;;;;;;;;7381246;19;20400;-77
2022/06/07 12:16:19;;;;;;;6.18;1.20;;;;;;;;;;7378621;19;20116;-76
2022/06/07 12:18:50;;;;;;;3.70;0.90;;;;;;;;;;7377681;19;20003;-75
2022/06/07 12:21:16;;;;;;;4.25;1.30;;;;;;;;;;7373845;19;20013;-76
2022/06/07 12:23:43;;;;;;;2.67;0.80;;;;;;;;;;7382318;19;20003;-76
2022/06/07 12:26:20;;;;;;;3.38;1.10;;;;;;;;;;7379798;19;20011;-75
2022/06/07 12:28:50;;;;;;;2.55;1.00;;;;;;;;;;7379709;19;20556;-75
2022/06/07 12:31:22;;;;;;;3.40;1.35;;;;;;;;;;7379601;19;20029;-76
2022/06/07 12:33:51;;;;;;;5.88;1.30;;;;;;;;;;7377424;19;20011;-75
2022/06/07 12:36:19;;;;;;;4.80;1.52;;;;;;;;;;7375864;19;19994;-76
2022/06/07 12:38:45;;;;;;;2.78;1.00;;;;;;;;;;7377406;19;20086;-76
2022/06/07 12:41:17;;;;;;;4.63;1.15;;;;;;;;;;7376417;19;20022;-76
2022/06/07 12:43:47;;;;;;;2.97;1.10;;;;;;;;;;7376959;19;20010;-76
2022/06/07 12:46:19;;;;;;;2.55;0.90;;;;;;;;;;7362000;19;20498;-74
2022/06/07 12:48:44;;;;;;;6.47;0.90;;;;;;;;;;7371093;19;20447;-74
2022/06/07 12:51:22;;;;;;;2.60;1.20;;;;;;;;;;7381294;19;20086;-75
2022/06/07 12:53:48;;;;;;;2.85;1.10;;;;;;;;;;7379780;19;20010;-76
2022/06/07 12:56:15;;;;;;;3.88;1.10;;;;;;;;;;7378055;19;20319;-75
2022/06/07 12:58:45;;;;;;;4.13;1.20;;;;;;;;;;7381848;19;20044;-76
2022/06/07 13:01:19;;;;;;;3.72;1.30;;;;;;;;;;7377694;19;20002;-76
2022/06/07 13:03:44;;;;;;;3.47;1.15;;;;;;;;;;7380301;19;20120;-75
2022/06/07 13:06:17;;;;;;;2.33;1.00;;;;;;;;;;7381898;19;20020;-76
2022/06/07 13:08:42;;;;;;;1.85;0.80;;;;;;;;;;7360049;19;20017;-75
2022/06/07 13:11:15;;;;;;;1.75;0.70;;;;;;;;;;7342558;19;20070;-75
